sensor_id;sensor_type;location;lat;lon;timestamp;pressure;altitude;pressure_sealevel;temperature;humidity
35649;BME280;21768;48.562;13.414;2023-07-16T00:01:39;96626.09;;;25.46;52.40
35649;BME280;21768;48.562;13.414;2023-07-16T00:04:05;96633.88;;;25.38;53.35
35649;BME280;21768;48.562;13.414;2023-07-16T00:06:30;96635.63;;;25.31;53.32
35649;BME280;21768;48.562;13.414;2023-07-16T00:08:55;96621.88;;;25.26;53.23
35649;BME280;21768;48.562;13.414;2023-07-16T00:11:21;96625.38;;;25.22;53.98
35649;BME280;21768;48.562;13.414;2023-07-16T00:13:46;96624.53;;;25.14;54.49
35649;BME280;21768;48.562;13.414;2023-07-16T00:16:13;96633.16;;;25.10;54.08
35649;BME280;21768;48.562;13.414;2023-07-16T00:18:39;96632.28;;;25.09;53.83
35649;BME280;21768;48.562;13.414;2023-07-16T00:21:04;96634.88;;;25.08;53.82
35649;BME280;21768;48.562;13.414;2023-07-16T00:23:30;96637.47;;;25.02;54.34
35649;BME280;21768;48.562;13.414;2023-07-16T00:25:55;96646.13;;;24.96;54.08
35649;BME280;21768;48.562;13.414;2023-07-16T00:28:20;96649.53;;;24.94;54.09
35649;BME280;21768;48.562;13.414;2023-07-16T00:30:46;96652.13;;;24.94;53.77
35649;BME280;21768;48.562;13.414;2023-07-16T00:33:11;96667.63;;;24.92;53.92
35649;BME280;21768;48.562;13.414;2023-07-16T00:35:37;96702.03;;;24.90;53.34
35649;BME280;21768;48.562;13.414;2023-07-16T00:38:02;96712.38;;;24.84;53.16
35649;BME280;21768;48.562;13.414;2023-07-16T00:40:27;96734.78;;;24.72;53.54
35649;BME280;21768;48.562;13.414;2023-07-16T00:42:53;96738.22;;;24.59;53.90
35649;BME280;21768;48.562;13.414;2023-07-16T00:45:18;96721.03;;;24.49;53.75
35649;BME280;21768;48.562;13.414;2023-07-16T00:47:44;96741.66;;;24.49;53.91
35649;BME280;21768;48.562;13.414;2023-07-16T00:50:10;96757.13;;;24.51;53.40
35649;BME280;21768;48.562;13.414;2023-07-16T00:52:36;96745.06;;;24.53;53.34
35649;BME280;21768;48.562;13.414;2023-07-16T00:55:02;96757.97;;;24.54;54.00
35649;BME280;21768;48.562;13.414;2023-07-16T00:57:28;96751.97;;;24.55;53.56
35649;BME280;21768;48.562;13.414;2023-07-16T00:59:54;96750.25;;;24.57;54.00
35649;BME280;21768;48.562;13.414;2023-07-16T01:02:20;96760.56;;;24.57;53.53
35649;BME280;21768;48.562;13.414;2023-07-16T01:04:45;96762.28;;;24.61;53.33
35649;BME280;21768;48.562;13.414;2023-07-16T01:07:11;96770.03;;;24.67;52.97
35649;BME280;21768;48.562;13.414;2023-07-16T01:09:42;96794.13;;;24.74;52.82
35649;BME280;21768;48.562;13.414;2023-07-16T01:12:09;96796.69;;;24.79;52.88
35649;BME280;21768;48.562;13.414;2023-07-16T01:14:35;96807.88;;;24.85;52.85
35649;BME280;21768;48.562;13.414;2023-07-16T01:17:05;96817.31;;;24.86;52.80
35649;BME280;21768;48.562;13.414;2023-07-16T01:19:32;96815.59;;;24.82;53.04
35649;BME280;21768;48.562;13.414;2023-07-16T01:22:27;96845.72;;;24.77;52.94
35649;BME280;21768;48.562;13.414;2023-07-16T01:25:00;96868.06;;;24.78;53.39
35649;BME280;21768;48.562;13.414;2023-07-16T01:30:15;96862.06;;;24.67;53.66
35649;BME280;21768;48.562;13.414;2023-07-16T01:32:42;96858.63;;;24.66;53.68
35649;BME280;21768;48.562;13.414;2023-07-16T01:35:08;96853.47;;;24.66;53.87
35649;BME280;21768;48.562;13.414;2023-07-16T01:37:35;96853.47;;;24.69;53.89
35649;BME280;21768;48.562;13.414;2023-07-16T01:40:01;96852.63;;;24.72;53.74
35649;BME280;21768;48.562;13.414;2023-07-16T01:42:28;96857.75;;;24.75;53.79
35649;BME280;21768;48.562;13.414;2023-07-16T01:44:53;96864.63;;;24.77;53.97
35649;BME280;21768;48.562;13.414;2023-07-16T01:50:01;96849.16;;;24.84;53.51
35649;BME280;21768;48.562;13.414;2023-07-16T01:52:28;96857.75;;;24.84;53.74
35649;BME280;21768;48.562;13.414;2023-07-16T01:54:53;96860.34;;;24.86;53.71
35649;BME280;21768;48.562;13.414;2023-07-16T01:57:18;96878.41;;;24.87;53.86
35649;BME280;21768;48.562;13.414;2023-07-16T01:59:44;96888.75;;;24.92;54.24
35649;BME280;21768;48.562;13.414;2023-07-16T02:02:11;96893.94;;;24.95;53.58
35649;BME280;21768;48.562;13.414;2023-07-16T02:04:36;96887.91;;;24.94;53.33
35649;BME280;21768;48.562;13.414;2023-07-16T02:07:02;96887.06;;;24.95;53.46
35649;BME280;21768;48.562;13.414;2023-07-16T02:09:27;96885.34;;;24.99;53.48
35649;BME280;21768;48.562;13.414;2023-07-16T02:11:52;96887.91;;;25.02;53.34
35649;BME280;21768;48.562;13.414;2023-07-16T02:14:18;96901.69;;;25.04;53.38
35649;BME280;21768;48.562;13.414;2023-07-16T02:16:43;96900.81;;;25.08;53.39
35649;BME280;21768;48.562;13.414;2023-07-16T02:19:08;96891.34;;;25.07;53.30
35649;BME280;21768;48.562;13.414;2023-07-16T02:21:34;96882.75;;;25.08;53.32
35649;BME280;21768;48.562;13.414;2023-07-16T02:23:59;96896.53;;;25.10;53.02
35649;BME280;21768;48.562;13.414;2023-07-16T02:26:24;96898.25;;;25.13;53.14
35649;BME280;21768;48.562;13.414;2023-07-16T02:28:50;96918.03;;;25.14;52.87
35649;BME280;21768;48.562;13.414;2023-07-16T02:31:16;96952.47;;;25.11;52.92
35649;BME280;21768;48.562;13.414;2023-07-16T02:33:41;96992.06;;;25.12;52.65
35649;BME280;21768;48.562;13.414;2023-07-16T02:36:06;97054.91;;;25.15;52.92
35649;BME280;21768;48.562;13.414;2023-07-16T02:38:32;97073.88;;;25.17;52.37
35649;BME280;21768;48.562;13.414;2023-07-16T02:40:57;97074.72;;;25.16;51.97
35649;BME280;21768;48.562;13.414;2023-07-16T02:43:23;97104.00;;;25.23;51.11
35649;BME280;21768;48.562;13.414;2023-07-16T02:45:48;97120.38;;;25.29;51.26
35649;BME280;21768;48.562;13.414;2023-07-16T02:48:14;97128.97;;;25.28;51.97
35649;BME280;21768;48.562;13.414;2023-07-16T02:50:39;97147.91;;;25.24;52.55
35649;BME280;21768;48.562;13.414;2023-07-16T02:53:06;97152.22;;;25.24;52.88
35649;BME280;21768;48.562;13.414;2023-07-16T02:55:32;97162.53;;;25.19;53.43
35649;BME280;21768;48.562;13.414;2023-07-16T02:57:57;97180.59;;;25.16;53.66
35649;BME280;21768;48.562;13.414;2023-07-16T03:00:23;97185.75;;;25.13;53.62
35649;BME280;21768;48.562;13.414;2023-07-16T03:02:48;97182.31;;;25.14;54.13
35649;BME280;21768;48.562;13.414;2023-07-16T03:05:17;97184.03;;;25.12;54.10
35649;BME280;21768;48.562;13.414;2023-07-16T03:07:42;97187.47;;;25.11;54.25
35649;BME280;21768;48.562;13.414;2023-07-16T03:10:08;97177.13;;;25.08;54.48
35649;BME280;21768;48.562;13.414;2023-07-16T03:12:34;97190.88;;;25.04;54.75
35649;BME280;21768;48.562;13.414;2023-07-16T03:14:59;97204.59;;;25.00;54.92
35649;BME280;21768;48.562;13.414;2023-07-16T03:17:25;97208.81;;;24.86;55.87
35649;BME280;21768;48.562;13.414;2023-07-16T03:19:50;97213.06;;;24.73;56.58
35649;BME280;21768;48.562;13.414;2023-07-16T03:22:15;97214.69;;;24.62;57.37
35649;BME280;21768;48.562;13.414;2023-07-16T03:24:41;97219.78;;;24.54;58.13
35649;BME280;21768;48.562;13.414;2023-07-16T03:27:06;97216.28;;;24.45;58.73
35649;BME280;21768;48.562;13.414;2023-07-16T03:29:35;97219.69;;;24.39;58.96
35649;BME280;21768;48.562;13.414;2023-07-16T03:32:00;97223.03;;;24.30;59.40
35649;BME280;21768;48.562;13.414;2023-07-16T03:34:25;97221.28;;;24.26;59.71
35649;BME280;21768;48.562;13.414;2023-07-16T03:36:51;97236.72;;;24.22;59.96
35649;BME280;21768;48.562;13.414;2023-07-16T03:39:16;97250.47;;;24.21;60.31
35649;BME280;21768;48.562;13.414;2023-07-16T03:41:42;97258.19;;;24.19;60.59
35649;BME280;21768;48.562;13.414;2023-07-16T03:44:07;97267.63;;;24.19;60.48
35649;BME280;21768;48.562;13.414;2023-07-16T03:46:33;97264.16;;;24.15;60.77
35649;BME280;21768;48.562;13.414;2023-07-16T03:48:58;97258.94;;;24.11;61.05
35649;BME280;21768;48.562;13.414;2023-07-16T03:51:23;97259.78;;;24.09;61.29
35649;BME280;21768;48.562;13.414;2023-07-16T03:53:49;97264.94;;;24.09;61.27
35649;BME280;21768;48.562;13.414;2023-07-16T03:56:14;97270.13;;;24.11;61.64
35649;BME280;21768;48.562;13.414;2023-07-16T03:58:39;97273.59;;;24.15;61.34
35649;BME280;21768;48.562;13.414;2023-07-16T04:01:05;97272.72;;;24.13;61.60
35649;BME280;21768;48.562;13.414;2023-07-16T04:03:30;97276.91;;;24.03;61.95
35649;BME280;21768;48.562;13.414;2023-07-16T04:06:06;97288.13;;;24.08;61.86
35649;BME280;21768;48.562;13.414;2023-07-16T04:08:34;97288.13;;;24.08;61.76
35649;BME280;21768;48.562;13.414;2023-07-16T04:10:59;97291.59;;;24.08;61.65
35649;BME280;21768;48.562;13.414;2023-07-16T04:13:25;97296.66;;;23.99;61.98
35649;BME280;21768;48.562;13.414;2023-07-16T04:15:50;97301.81;;;23.98;62.32
35649;BME280;21768;48.562;13.414;2023-07-16T04:18:21;97303.56;;;24.03;62.14
35649;BME280;21768;48.562;13.414;2023-07-16T04:20:46;97306.97;;;23.99;62.46
35649;BME280;21768;48.562;13.414;2023-07-16T04:23:11;97309.53;;;24.01;62.49
35649;BME280;21768;48.562;13.414;2023-07-16T04:25:37;97316.38;;;23.94;62.55
35649;BME280;21768;48.562;13.414;2023-07-16T04:28:02;97327.47;;;23.90;62.72
35649;BME280;21768;48.562;13.414;2023-07-16T04:30:29;97310.16;;;23.80;63.11
35649;BME280;21768;48.562;13.414;2023-07-16T04:32:54;97322.97;;;23.71;63.37
35649;BME280;21768;48.562;13.414;2023-07-16T04:35:19;97332.38;;;23.69;63.69
35649;BME280;21768;48.562;13.414;2023-07-16T04:37:45;97329.78;;;23.67;63.73
35649;BME280;21768;48.562;13.414;2023-07-16T04:40:10;97347.72;;;23.60;63.83
35649;BME280;21768;48.562;13.414;2023-07-16T04:42:36;97349.44;;;23.61;64.07
35649;BME280;21768;48.562;13.414;2023-07-16T04:45:01;97361.44;;;23.59;63.90
35649;BME280;21768;48.562;13.414;2023-07-16T04:47:27;97369.16;;;23.57;64.29
35649;BME280;21768;48.562;13.414;2023-07-16T04:49:53;97370.78;;;23.51;64.30
35649;BME280;21768;48.562;13.414;2023-07-16T04:52:18;97377.53;;;23.44;64.29
35649;BME280;21768;48.562;13.414;2023-07-16T04:54:44;97379.31;;;23.48;64.16
35649;BME280;21768;48.562;13.414;2023-07-16T04:57:09;97375.03;;;23.52;64.48
35649;BME280;21768;48.562;13.414;2023-07-16T04:59:34;97377.75;;;23.58;64.14
35649;BME280;21768;48.562;13.414;2023-07-16T05:02:04;97383.84;;;23.64;64.30
35649;BME280;21768;48.562;13.414;2023-07-16T05:04:29;97381.22;;;23.60;64.12
35649;BME280;21768;48.562;13.414;2023-07-16T05:06:55;97384.69;;;23.63;63.73
35649;BME280;21768;48.562;13.414;2023-07-16T05:09:20;97390.84;;;23.73;63.64
35649;BME280;21768;48.562;13.414;2023-07-16T05:11:46;97392.63;;;23.79;63.93
35649;BME280;21768;48.562;13.414;2023-07-16T05:14:11;97404.75;;;23.87;63.65
35649;BME280;21768;48.562;13.414;2023-07-16T05:16:37;97398.00;;;23.95;63.32
35649;BME280;21768;48.562;13.414;2023-07-16T05:19:02;97402.56;;;24.18;62.93
35649;BME280;21768;48.562;13.414;2023-07-16T05:21:27;97404.50;;;24.35;61.95
35649;BME280;21768;48.562;13.414;2023-07-16T05:23:53;97399.28;;;24.31;62.18
35649;BME280;21768;48.562;13.414;2023-07-16T05:26:18;97400.09;;;24.25;62.59
35649;BME280;21768;48.562;13.414;2023-07-16T05:28:44;97408.72;;;24.27;62.13
35649;BME280;21768;48.562;13.414;2023-07-16T05:31:09;97407.91;;;24.31;62.08
35649;BME280;21768;48.562;13.414;2023-07-16T05:33:34;97400.97;;;24.24;62.02
35649;BME280;21768;48.562;13.414;2023-07-16T05:36:00;97408.59;;;24.20;61.79
35649;BME280;21768;48.562;13.414;2023-07-16T05:38:25;97413.66;;;24.12;62.25
35649;BME280;21768;48.562;13.414;2023-07-16T05:40:51;97412.78;;;24.10;62.38
35649;BME280;21768;48.562;13.414;2023-07-16T05:43:17;97410.97;;;24.03;62.42
35649;BME280;21768;48.562;13.414;2023-07-16T05:45:42;97410.09;;;24.01;62.79
35649;BME280;21768;48.562;13.414;2023-07-16T05:48:08;97425.56;;;24.01;62.86
35649;BME280;21768;48.562;13.414;2023-07-16T05:50:33;97434.91;;;23.93;62.66
35649;BME280;21768;48.562;13.414;2023-07-16T05:52:58;97433.22;;;23.95;63.03
35649;BME280;21768;48.562;13.414;2023-07-16T05:55:24;97429.84;;;23.99;62.66
35649;BME280;21768;48.562;13.414;2023-07-16T05:57:50;97436.78;;;24.04;63.25
35649;BME280;21768;48.562;13.414;2023-07-16T06:00:16;97447.97;;;24.06;62.91
35649;BME280;21768;48.562;13.414;2023-07-16T06:02:41;97436.00;;;24.12;62.93
35649;BME280;21768;48.562;13.414;2023-07-16T06:05:07;97438.69;;;24.19;62.75
35649;BME280;21768;48.562;13.414;2023-07-16T06:07:32;97460.19;;;24.20;62.37
35649;BME280;21768;48.562;13.414;2023-07-16T06:09:58;97454.19;;;24.21;62.51
35649;BME280;21768;48.562;13.414;2023-07-16T06:12:24;97471.44;;;24.26;62.09
35649;BME280;21768;48.562;13.414;2023-07-16T06:14:49;97466.31;;;24.25;62.01
35649;BME280;21768;48.562;13.414;2023-07-16T06:17:15;97470.59;;;24.26;61.89
35649;BME280;21768;48.562;13.414;2023-07-16T06:19:40;97468.91;;;24.29;62.25
35649;BME280;21768;48.562;13.414;2023-07-16T06:22:06;97469.00;;;24.35;61.73
35649;BME280;21768;48.562;13.414;2023-07-16T06:24:32;97469.09;;;24.43;61.52
35649;BME280;21768;48.562;13.414;2023-07-16T06:26:58;97472.53;;;24.42;61.65
35649;BME280;21768;48.562;13.414;2023-07-16T06:29:23;97483.75;;;24.46;61.84
35649;BME280;21768;48.562;13.414;2023-07-16T06:31:58;97488.03;;;24.44;61.71
35649;BME280;21768;48.562;13.414;2023-07-16T06:34:24;97493.13;;;24.39;61.71
35649;BME280;21768;48.562;13.414;2023-07-16T06:36:50;97485.41;;;24.40;61.59
35649;BME280;21768;48.562;13.414;2023-07-16T06:39:15;97482.88;;;24.45;61.58
35649;BME280;21768;48.562;13.414;2023-07-16T06:41:40;97486.38;;;24.52;61.24
35649;BME280;21768;48.562;13.414;2023-07-16T06:44:06;97488.16;;;24.57;60.94
35649;BME280;21768;48.562;13.414;2023-07-16T06:46:31;97490.75;;;24.57;61.20
35649;BME280;21768;48.562;13.414;2023-07-16T06:48:57;97486.53;;;24.65;61.54
35649;BME280;21768;48.562;13.414;2023-07-16T06:51:22;97489.19;;;24.70;61.09
35649;BME280;21768;48.562;13.414;2023-07-16T06:53:47;97495.25;;;24.76;61.34
35649;BME280;21768;48.562;13.414;2023-07-16T06:56:13;97487.53;;;24.78;60.00
35649;BME280;21768;48.562;13.414;2023-07-16T06:58:38;97490.13;;;24.80;60.60
35649;BME280;21768;48.562;13.414;2023-07-16T07:01:04;97486.78;;;24.87;60.25
35649;BME280;21768;48.562;13.414;2023-07-16T07:03:29;97501.56;;;24.98;59.99
35649;BME280;21768;48.562;13.414;2023-07-16T07:05:54;97491.28;;;25.04;60.38
35649;BME280;21768;48.562;13.414;2023-07-16T07:08:20;97500.81;;;25.10;59.62
35649;BME280;21768;48.562;13.414;2023-07-16T07:10:48;97499.09;;;25.12;59.55
35649;BME280;21768;48.562;13.414;2023-07-16T07:13:13;97499.06;;;25.09;59.31
35649;BME280;21768;48.562;13.414;2023-07-16T07:15:39;97495.69;;;25.15;59.89
35649;BME280;21768;48.562;13.414;2023-07-16T07:18:04;97499.16;;;25.18;59.16
35649;BME280;21768;48.562;13.414;2023-07-16T07:20:29;97500.94;;;25.25;59.37
35649;BME280;21768;48.562;13.414;2023-07-16T07:22:55;97501.88;;;25.35;59.16
35649;BME280;21768;48.562;13.414;2023-07-16T07:25:20;97501.97;;;25.42;58.85
35649;BME280;21768;48.562;13.414;2023-07-16T07:27:45;97496.00;;;25.56;58.27
35649;BME280;21768;48.562;13.414;2023-07-16T07:30:11;97499.63;;;25.70;58.43
35649;BME280;21768;48.562;13.414;2023-07-16T07:32:37;97508.31;;;25.84;57.67
35649;BME280;21768;48.562;13.414;2023-07-16T07:35:04;97509.16;;;25.83;57.17
35649;BME280;21768;48.562;13.414;2023-07-16T07:37:29;97515.16;;;25.76;57.63
35649;BME280;21768;48.562;13.414;2023-07-16T07:39:55;97510.84;;;25.76;57.47
35649;BME280;21768;48.562;13.414;2023-07-16T07:42:20;97502.34;;;25.93;57.68
35649;BME280;21768;48.562;13.414;2023-07-16T07:44:45;97507.53;;;25.99;56.99
35649;BME280;21768;48.562;13.414;2023-07-16T07:47:11;97503.34;;;26.18;56.95
35649;BME280;21768;48.562;13.414;2023-07-16T07:49:36;97504.22;;;26.24;54.72
35649;BME280;21768;48.562;13.414;2023-07-16T07:52:02;97505.09;;;26.28;54.70
35649;BME280;21768;48.562;13.414;2023-07-16T07:54:28;97508.59;;;26.30;53.43
35649;BME280;21768;48.562;13.414;2023-07-16T07:56:53;97508.59;;;26.30;54.76
35649;BME280;21768;48.562;13.414;2023-07-16T07:59:19;97514.69;;;26.39;53.37
35649;BME280;21768;48.562;13.414;2023-07-16T08:01:44;97515.56;;;26.40;52.48
35649;BME280;21768;48.562;13.414;2023-07-16T08:04:09;97515.53;;;26.37;53.01
35649;BME280;21768;48.562;13.414;2023-07-16T08:06:34;97512.00;;;26.23;53.04
35649;BME280;21768;48.562;13.414;2023-07-16T08:09:00;97518.88;;;26.18;54.29
35649;BME280;21768;48.562;13.414;2023-07-16T08:11:25;97518.03;;;26.19;54.56
35649;BME280;21768;48.562;13.414;2023-07-16T08:13:51;97524.94;;;26.21;53.51
35649;BME280;21768;48.562;13.414;2023-07-16T08:16:16;97529.16;;;26.10;53.82
35649;BME280;21768;48.562;13.414;2023-07-16T08:18:41;97533.41;;;26.02;53.11
35649;BME280;21768;48.562;13.414;2023-07-16T08:21:07;97532.50;;;25.92;54.32
35649;BME280;21768;48.562;13.414;2023-07-16T08:23:32;97533.41;;;25.96;54.02
35649;BME280;21768;48.562;13.414;2023-07-16T08:25:58;97534.25;;;25.99;54.72
35649;BME280;21768;48.562;13.414;2023-07-16T08:28:23;97535.09;;;25.92;52.08
35649;BME280;21768;48.562;13.414;2023-07-16T08:30:49;97538.50;;;25.85;52.63
35649;BME280;21768;48.562;13.414;2023-07-16T08:33:14;97531.59;;;25.86;52.22
35649;BME280;21768;48.562;13.414;2023-07-16T08:35:41;97530.72;;;25.85;51.51
35649;BME280;21768;48.562;13.414;2023-07-16T08:38:06;97523.06;;;25.94;51.28
35649;BME280;21768;48.562;13.414;2023-07-16T08:40:36;97523.06;;;25.97;50.94
35649;BME280;21768;48.562;13.414;2023-07-16T08:43:03;97515.31;;;26.00;51.02
35649;BME280;21768;48.562;13.414;2023-07-16T08:45:31;97519.63;;;26.01;51.03
35649;BME280;21768;48.562;13.414;2023-07-16T08:48:02;97517.03;;;26.03;51.20
35649;BME280;21768;48.562;13.414;2023-07-16T08:50:28;97510.28;;;26.28;51.99
35649;BME280;21768;48.562;13.414;2023-07-16T08:52:55;97509.59;;;26.59;50.37
35649;BME280;21768;48.562;13.414;2023-07-16T08:55:20;97508.78;;;26.69;50.30
35649;BME280;21768;48.562;13.414;2023-07-16T08:57:46;97515.78;;;27.01;49.55
35649;BME280;21768;48.562;13.414;2023-07-16T09:00:14;97520.16;;;27.37;48.91
35649;BME280;21768;48.562;13.414;2023-07-16T09:02:40;97517.56;;;27.38;48.79
35649;BME280;21768;48.562;13.414;2023-07-16T09:05:05;97511.53;;;27.42;48.97
35649;BME280;21768;48.562;13.414;2023-07-16T09:07:31;97511.50;;;27.33;49.53
35649;BME280;21768;48.562;13.414;2023-07-16T09:09:58;97514.97;;;27.37;50.24
35649;BME280;21768;48.562;13.414;2023-07-16T09:12:24;97518.47;;;27.60;49.86
35649;BME280;21768;48.562;13.414;2023-07-16T09:14:50;97522.75;;;27.78;48.58
35649;BME280;21768;48.562;13.414;2023-07-16T09:17:21;97514.97;;;27.75;49.26
35649;BME280;21768;48.562;13.414;2023-07-16T09:19:47;97511.47;;;28.17;48.83
35649;BME280;21768;48.562;13.414;2023-07-16T09:22:12;97505.28;;;28.50;47.54
35649;BME280;21768;48.562;13.414;2023-07-16T09:24:37;97513.06;;;28.52;47.84
35649;BME280;21768;48.562;13.414;2023-07-16T09:27:03;97517.41;;;28.54;47.82
35649;BME280;21768;48.562;13.414;2023-07-16T09:29:28;97514.78;;;28.57;47.30
35649;BME280;21768;48.562;13.414;2023-07-16T09:32:00;97511.34;;;28.49;47.66
35649;BME280;21768;48.562;13.414;2023-07-16T09:34:30;97513.97;;;28.46;46.96
35649;BME280;21768;48.562;13.414;2023-07-16T09:37:00;97517.47;;;28.45;47.71
35649;BME280;21768;48.562;13.414;2023-07-16T09:39:27;97524.44;;;28.16;48.56
35649;BME280;21768;48.562;13.414;2023-07-16T09:41:53;97525.31;;;28.01;48.92
35649;BME280;21768;48.562;13.414;2023-07-16T09:44:19;97532.28;;;27.87;49.20
35649;BME280;21768;48.562;13.414;2023-07-16T09:46:45;97521.88;;;27.79;49.27
35649;BME280;21768;48.562;13.414;2023-07-16T09:49:11;97524.47;;;27.74;49.80
35649;BME280;21768;48.562;13.414;2023-07-16T09:51:38;97511.53;;;27.85;49.61
35649;BME280;21768;48.562;13.414;2023-07-16T09:54:04;97512.31;;;28.27;49.19
35649;BME280;21768;48.562;13.414;2023-07-16T09:56:55;97502.56;;;29.97;45.23
35649;BME280;21768;48.562;13.414;2023-07-16T09:59:25;97500.25;;;32.20;40.93
35649;BME280;21768;48.562;13.414;2023-07-16T10:01:52;97494.88;;;32.70;39.92
35649;BME280;21768;48.562;13.414;2023-07-16T10:04:19;97495.31;;;34.00;37.05
35649;BME280;21768;48.562;13.414;2023-07-16T10:09:14;97498.47;;;35.87;34.55
35649;BME280;21768;48.562;13.414;2023-07-16T10:11:40;97498.78;;;35.50;34.71
35649;BME280;21768;48.562;13.414;2023-07-16T10:14:07;97490.81;;;35.53;34.16
35649;BME280;21768;48.562;13.414;2023-07-16T10:16:36;97483.38;;;35.92;33.68
35649;BME280;21768;48.562;13.414;2023-07-16T10:19:04;97474.34;;;36.24;33.36
35649;BME280;21768;48.562;13.414;2023-07-16T10:21:36;97480.13;;;36.58;31.97
35649;BME280;21768;48.562;13.414;2023-07-16T10:24:03;97468.94;;;37.20;31.02
35649;BME280;21768;48.562;13.414;2023-07-16T10:26:30;97461.47;;;38.91;29.25
35649;BME280;21768;48.562;13.414;2023-07-16T10:28:55;97462.09;;;39.85;27.32
35649;BME280;21768;48.562;13.414;2023-07-16T10:31:23;97455.44;;;39.78;26.90
35649;BME280;21768;48.562;13.414;2023-07-16T10:34:02;97455.13;;;39.84;26.44
35649;BME280;21768;48.562;13.414;2023-07-16T10:36:29;97457.31;;;40.43;26.71
35649;BME280;21768;48.562;13.414;2023-07-16T10:39:02;97454.22;;;41.31;25.10
35649;BME280;21768;48.562;13.414;2023-07-16T10:41:28;97455.09;;;42.06;24.52
35649;BME280;21768;48.562;13.414;2023-07-16T10:43:53;97449.69;;;43.47;22.91
35649;BME280;21768;48.562;13.414;2023-07-16T10:46:20;97445.28;;;43.85;22.17
35649;BME280;21768;48.562;13.414;2023-07-16T10:48:46;97451.03;;;43.39;21.86
35649;BME280;21768;48.562;13.414;2023-07-16T10:51:14;97442.94;;;43.81;22.03
35649;BME280;21768;48.562;13.414;2023-07-16T10:53:42;97441.81;;;45.21;20.42
35649;BME280;21768;48.562;13.414;2023-07-16T10:56:07;97438.38;;;46.02;19.65
35649;BME280;21768;48.562;13.414;2023-07-16T10:58:33;97451.03;;;46.45;19.25
35649;BME280;21768;48.562;13.414;2023-07-16T11:00:58;97448.13;;;46.48;19.07
35649;BME280;21768;48.562;13.414;2023-07-16T11:03:24;97439.97;;;46.71;18.86
35649;BME280;21768;48.562;13.414;2023-07-16T11:05:49;97436.78;;;46.11;18.70
35649;BME280;21768;48.562;13.414;2023-07-16T11:08:22;97438.00;;;44.76;20.14
35649;BME280;21768;48.562;13.414;2023-07-16T11:10:56;97423.69;;;42.69;22.36
35649;BME280;21768;48.562;13.414;2023-07-16T11:13:28;97429.47;;;40.36;24.14
35649;BME280;21768;48.562;13.414;2023-07-16T11:15:54;97420.88;;;38.18;27.21
35649;BME280;21768;48.562;13.414;2023-07-16T11:18:23;97423.03;;;37.05;28.26
35649;BME280;21768;48.562;13.414;2023-07-16T11:20:52;97419.25;;;35.97;30.09
35649;BME280;21768;48.562;13.414;2023-07-16T11:23:18;97416.75;;;35.15;31.52
35649;BME280;21768;48.562;13.414;2023-07-16T11:25:49;97415.25;;;34.82;32.04
35649;BME280;21768;48.562;13.414;2023-07-16T11:28:15;97409.63;;;34.64;32.54
35649;BME280;21768;48.562;13.414;2023-07-16T11:30:41;97406.31;;;34.28;32.72
35649;BME280;21768;48.562;13.414;2023-07-16T11:33:13;97400.09;;;34.01;32.74
35649;BME280;21768;48.562;13.414;2023-07-16T11:35:39;97403.50;;;33.72;33.14
35649;BME280;21768;48.562;13.414;2023-07-16T11:38:05;97396.97;;;33.56;33.93
35649;BME280;21768;48.562;13.414;2023-07-16T11:40:34;97390.81;;;33.23;33.65
35649;BME280;21768;48.562;13.414;2023-07-16T11:43:12;97394.66;;;33.10;35.08
35649;BME280;21768;48.562;13.414;2023-07-16T11:45:38;97391.88;;;33.16;35.44
35649;BME280;21768;48.562;13.414;2023-07-16T11:48:04;97389.34;;;33.13;34.93
35649;BME280;21768;48.562;13.414;2023-07-16T11:50:30;97386.22;;;32.97;34.92
35649;BME280;21768;48.562;13.414;2023-07-16T11:53:00;97381.00;;;32.97;35.78
35649;BME280;21768;48.562;13.414;2023-07-16T11:55:26;97380.13;;;32.97;34.82
35649;BME280;21768;48.562;13.414;2023-07-16T11:57:52;97368.22;;;32.85;35.41
35649;BME280;21768;48.562;13.414;2023-07-16T12:00:18;97370.03;;;32.83;35.77
35649;BME280;21768;48.562;13.414;2023-07-16T12:02:44;97370.94;;;32.81;36.07
35649;BME280;21768;48.562;13.414;2023-07-16T12:05:17;97380.41;;;32.86;35.10
35649;BME280;21768;48.562;13.414;2023-07-16T12:07:42;97377.19;;;32.75;34.85
35649;BME280;21768;48.562;13.414;2023-07-16T12:10:08;97375.47;;;32.72;35.71
35649;BME280;21768;48.562;13.414;2023-07-16T12:12:33;97384.06;;;32.79;35.53
35649;BME280;21768;48.562;13.414;2023-07-16T12:15:03;97377.19;;;32.75;35.81
35649;BME280;21768;48.562;13.414;2023-07-16T12:17:29;97383.16;;;32.80;35.66
35649;BME280;21768;48.562;13.414;2023-07-16T12:19:54;97374.31;;;32.86;35.85
35649;BME280;21768;48.562;13.414;2023-07-16T12:22:20;97373.31;;;32.91;35.64
35649;BME280;21768;48.562;13.414;2023-07-16T12:24:46;97367.94;;;32.96;36.35
35649;BME280;21768;48.562;13.414;2023-07-16T12:27:11;97369.16;;;32.83;36.30
35649;BME280;21768;48.562;13.414;2023-07-16T12:29:37;97368.31;;;32.82;35.08
35649;BME280;21768;48.562;13.414;2023-07-16T12:32:06;97360.44;;;32.84;35.07
35649;BME280;21768;48.562;13.414;2023-07-16T12:34:31;97356.78;;;32.91;35.58
35649;BME280;21768;48.562;13.414;2023-07-16T12:36:56;97362.91;;;32.90;35.55
35649;BME280;21768;48.562;13.414;2023-07-16T12:39:22;97344.44;;;32.94;35.98
35649;BME280;21768;48.562;13.414;2023-07-16T12:41:47;97344.31;;;33.00;35.00
35649;BME280;21768;48.562;13.414;2023-07-16T12:44:13;97340.09;;;32.95;35.47
35649;BME280;21768;48.562;13.414;2023-07-16T12:46:38;97338.25;;;32.98;35.19
35649;BME280;21768;48.562;13.414;2023-07-16T12:49:04;97335.69;;;32.97;34.77
35649;BME280;21768;48.562;13.414;2023-07-16T12:51:29;97337.28;;;33.02;34.84
35649;BME280;21768;48.562;13.414;2023-07-16T12:53:54;97330.16;;;33.09;35.06